sensor_id;sensor_type;location;lat;lon;timestamp;pressure;altitude;pressure_sealevel;temperature;humidity
63665;BME280;49820;33.966;73.390;2023-06-14T02:32:09;78410.19;;;16.77;100.00
63665;BME280;49820;33.966;73.390;2023-06-14T02:34:39;78414.88;;;16.92;100.00
63665;BME280;49820;33.966;73.390;2023-06-14T02:37:09;78386.09;;;17.01;100.00
63665;BME280;49820;33.966;73.390;2023-06-14T02:39:39;78369.84;;;17.68;100.00
63665;BME280;49820;33.966;73.390;2023-06-14T02:42:08;78399.41;;;18.84;92.02
63665;BME280;49820;33.966;73.390;2023-06-14T02:44:38;78381.91;;;19.66;92.43
63665;BME280;49820;33.966;73.390;2023-06-14T02:47:07;78386.34;;;20.39;85.52
63665;BME280;49820;33.966;73.390;2023-06-14T02:49:38;78362.41;;;20.31;67.17
63665;BME280;49820;33.966;73.390;2023-06-14T02:52:08;78384.94;;;20.40;70.79
63665;BME280;49820;33.966;73.390;2023-06-14T02:54:37;78361.72;;;20.20;79.70
63665;BME280;49820;33.966;73.390;2023-06-14T02:57:07;78377.72;;;20.47;73.93
63665;BME280;49820;33.966;73.390;2023-06-14T02:59:37;78363.94;;;20.28;67.89
63665;BME280;49820;33.966;73.390;2023-06-14T03:02:07;78373.63;;;20.25;72.63
63665;BME280;49820;33.966;73.390;2023-06-14T03:04:37;78371.84;;;20.32;79.29
63665;BME280;49820;33.966;73.390;2023-06-14T03:07:10;78385.66;;;20.94;95.33
63665;BME280;49820;33.966;73.390;2023-06-14T03:09:42;78393.34;;;21.45;100.00
63665;BME280;49820;33.966;73.390;2023-06-14T03:26:51;78390.75;;;21.21;100.00
63665;BME280;49820;33.966;73.390;2023-06-14T03:29:23;78385.97;;;21.64;100.00
63665;BME280;49820;33.966;73.390;2023-06-14T03:32:00;78415.19;;;21.96;98.52
63665;BME280;49820;33.966;73.390;2023-06-14T03:34:38;78414.41;;;22.49;100.00
63665;BME280;49820;33.966;73.390;2023-06-14T03:37:12;78406.13;;;22.80;97.60
63665;BME280;49820;33.966;73.390;2023-06-14T03:39:41;78402.50;;;23.33;92.41
63665;BME280;49820;33.966;73.390;2023-06-14T03:42:21;78404.69;;;23.11;99.90
63665;BME280;49820;33.966;73.390;2023-06-14T03:44:51;78405.81;;;23.64;93.03
63665;BME280;49820;33.966;73.390;2023-06-14T03:47:22;78403.06;;;23.44;98.16
63665;BME280;49820;33.966;73.390;2023-06-14T03:49:51;78403.34;;;23.40;93.82
63665;BME280;49820;33.966;73.390;2023-06-14T03:52:21;78420.22;;;23.43;88.71
63665;BME280;49820;33.966;73.390;2023-06-14T03:54:52;78415.34;;;23.54;86.45
63665;BME280;49820;33.966;73.390;2023-06-14T03:57:25;78365.88;;;22.92;83.76
63665;BME280;49820;33.966;73.390;2023-06-14T03:59:56;78400.03;;;23.10;95.90
63665;BME280;49820;33.966;73.390;2023-06-14T04:02:27;78399.34;;;23.78;72.50
63665;BME280;49820;33.966;73.390;2023-06-14T04:04:58;78402.97;;;23.93;96.50
63665;BME280;49820;33.966;73.390;2023-06-14T04:07:29;78409.53;;;24.63;82.03
63665;BME280;49820;33.966;73.390;2023-06-14T04:09:58;78419.44;;;25.22;79.69
63665;BME280;49820;33.966;73.390;2023-06-14T04:12:27;78405.56;;;25.16;83.26
63665;BME280;49820;33.966;73.390;2023-06-14T04:14:56;78420.94;;;24.65;81.25
63665;BME280;49820;33.966;73.390;2023-06-14T04:17:42;78415.19;;;25.06;73.55
63665;BME280;49820;33.966;73.390;2023-06-14T04:20:11;78416.94;;;25.01;79.85
63665;BME280;49820;33.966;73.390;2023-06-14T04:22:41;78401.34;;;24.99;70.67
63665;BME280;49820;33.966;73.390;2023-06-14T04:25:12;78420.88;;;25.21;71.99
63665;BME280;49820;33.966;73.390;2023-06-14T04:27:42;78423.94;;;25.26;67.35
63665;BME280;49820;33.966;73.390;2023-06-14T04:30:13;78407.72;;;24.87;67.17
63665;BME280;49820;33.966;73.390;2023-06-14T04:32:48;78409.44;;;25.10;64.66
63665;BME280;49820;33.966;73.390;2023-06-14T04:35:18;78387.41;;;25.12;70.83
63665;BME280;49820;33.966;73.390;2023-06-14T04:37:47;78418.19;;;25.38;69.37
63665;BME280;49820;33.966;73.390;2023-06-14T04:40:17;78430.03;;;25.80;66.86
63665;BME280;49820;33.966;73.390;2023-06-14T04:42:47;78419.88;;;25.61;65.97
63665;BME280;49820;33.966;73.390;2023-06-14T04:45:18;78418.94;;;25.82;62.08
63665;BME280;49820;33.966;73.390;2023-06-14T04:47:48;78404.13;;;25.88;59.99
63665;BME280;49820;33.966;73.390;2023-06-14T04:50:17;78433.44;;;26.92;64.40
63665;BME280;49820;33.966;73.390;2023-06-14T04:52:46;78420.75;;;26.46;59.89
63665;BME280;49820;33.966;73.390;2023-06-14T04:55:20;78418.78;;;26.70;56.65
63665;BME280;49820;33.966;73.390;2023-06-14T04:57:52;78430.91;;;26.65;61.17
63665;BME280;49820;33.966;73.390;2023-06-14T05:00:25;78432.13;;;27.09;60.87
63665;BME280;49820;33.966;73.390;2023-06-14T05:02:54;78434.72;;;27.02;55.74
63665;BME280;49820;33.966;73.390;2023-06-14T05:05:24;78440.72;;;27.46;56.23
63665;BME280;49820;33.966;73.390;2023-06-14T05:07:53;78434.69;;;27.19;58.90
63665;BME280;49820;33.966;73.390;2023-06-14T05:10:24;78414.91;;;27.43;58.52
63665;BME280;49820;33.966;73.390;2023-06-14T05:12:53;78407.44;;;27.58;56.26
63665;BME280;49820;33.966;73.390;2023-06-14T05:15:24;78451.31;;;27.99;57.09
63665;BME280;49820;33.966;73.390;2023-06-14T05:17:55;78425.81;;;28.01;57.95
63665;BME280;49820;33.966;73.390;2023-06-14T05:20:25;78430.94;;;28.37;56.92
63665;BME280;49820;33.966;73.390;2023-06-14T05:22:55;78425.03;;;28.26;55.88
63665;BME280;49820;33.966;73.390;2023-06-14T05:25:25;78468.13;;;29.23;53.40
63665;BME280;49820;33.966;73.390;2023-06-14T05:27:57;78449.28;;;28.95;52.32
63665;BME280;49820;33.966;73.390;2023-06-14T05:30:26;78469.69;;;29.29;56.37
63665;BME280;49820;33.966;73.390;2023-06-14T05:32:58;78457.66;;;29.02;54.68
63665;BME280;49820;33.966;73.390;2023-06-14T05:35:27;78454.94;;;29.32;53.41
63665;BME280;49820;33.966;73.390;2023-06-14T05:37:56;78457.34;;;29.36;53.03
63665;BME280;49820;33.966;73.390;2023-06-14T05:40:25;78462.97;;;29.88;50.58
63665;BME280;49820;33.966;73.390;2023-06-14T05:42:55;78476.13;;;29.73;54.93
63665;BME280;49820;33.966;73.390;2023-06-14T05:45:24;78460.97;;;29.65;48.36
63665;BME280;49820;33.966;73.390;2023-06-14T05:47:53;78475.38;;;29.66;52.13
63665;BME280;49820;33.966;73.390;2023-06-14T05:50:23;78446.28;;;29.75;49.98
63665;BME280;49820;33.966;73.390;2023-06-14T05:52:53;78468.13;;;29.92;51.78
63665;BME280;49820;33.966;73.390;2023-06-14T05:55:23;78466.09;;;29.69;49.61
63665;BME280;49820;33.966;73.390;2023-06-14T05:57:53;78473.56;;;30.01;48.19
63665;BME280;49820;33.966;73.390;2023-06-14T06:00:22;78470.34;;;29.29;52.54
63665;BME280;49820;33.966;73.390;2023-06-14T06:02:52;78481.31;;;30.81;57.37
63665;BME280;49820;33.966;73.390;2023-06-14T06:05:21;78464.19;;;30.65;47.28
63665;BME280;49820;33.966;73.390;2023-06-14T06:07:50;78463.66;;;30.93;49.86
63665;BME280;49820;33.966;73.390;2023-06-14T06:10:20;78466.00;;;30.97;46.03
63665;BME280;49820;33.966;73.390;2023-06-14T06:12:49;78478.53;;;30.96;39.56
63665;BME280;49820;33.966;73.390;2023-06-14T06:15:21;78465.75;;;30.71;45.24
63665;BME280;49820;33.966;73.390;2023-06-14T06:17:50;78469.31;;;31.50;50.24
63665;BME280;49820;33.966;73.390;2023-06-14T06:20:24;78457.75;;;30.08;46.82
63665;BME280;49820;33.966;73.390;2023-06-14T06:23:00;78456.72;;;31.01;48.64
63665;BME280;49820;33.966;73.390;2023-06-14T06:25:29;78469.59;;;31.11;49.55
63665;BME280;49820;33.966;73.390;2023-06-14T06:28:01;78467.38;;;31.05;45.86
63665;BME280;49820;33.966;73.390;2023-06-14T06:30:30;78485.88;;;31.06;44.33
63665;BME280;49820;33.966;73.390;2023-06-14T06:33:01;78462.69;;;31.47;47.41
63665;BME280;49820;33.966;73.390;2023-06-14T06:35:30;78475.41;;;31.66;44.89
63665;BME280;49820;33.966;73.390;2023-06-14T06:38:01;78457.16;;;31.69;48.24
63665;BME280;49820;33.966;73.390;2023-06-14T06:40:30;78470.47;;;31.16;43.63
63665;BME280;49820;33.966;73.390;2023-06-14T06:42:59;78468.94;;;30.73;44.12
63665;BME280;49820;33.966;73.390;2023-06-14T06:45:29;78444.25;;;31.52;48.31
63665;BME280;49820;33.966;73.390;2023-06-14T06:47:59;78453.84;;;30.35;45.27
63665;BME280;49820;33.966;73.390;2023-06-14T06:50:28;78436.75;;;31.00;46.44
63665;BME280;49820;33.966;73.390;2023-06-14T06:52:58;78458.06;;;32.37;45.65
63665;BME280;49820;33.966;73.390;2023-06-14T06:55:28;78445.63;;;32.58;47.91
63665;BME280;49820;33.966;73.390;2023-06-14T06:57:57;78471.06;;;31.82;47.96
63665;BME280;49820;33.966;73.390;2023-06-14T07:00:26;78466.34;;;32.02;48.06
63665;BME280;49820;33.966;73.390;2023-06-14T07:02:56;78441.66;;;32.70;48.50
63665;BME280;49820;33.966;73.390;2023-06-14T07:05:25;78455.81;;;31.90;41.02
63665;BME280;49820;33.966;73.390;2023-06-14T07:07:55;78474.97;;;31.92;42.08
63665;BME280;49820;33.966;73.390;2023-06-14T07:10:24;78467.16;;;32.01;47.51
63665;BME280;49820;33.966;73.390;2023-06-14T07:12:54;78448.47;;;31.73;43.69
63665;BME280;49820;33.966;73.390;2023-06-14T07:15:23;78442.06;;;31.68;47.67
63665;BME280;49820;33.966;73.390;2023-06-14T07:17:52;78452.88;;;32.68;47.62
63665;BME280;49820;33.966;73.390;2023-06-14T07:20:22;78458.84;;;31.00;41.96
63665;BME280;49820;33.966;73.390;2023-06-14T07:22:53;78467.31;;;30.09;42.43
63665;BME280;49820;33.966;73.390;2023-06-14T07:25:22;78474.63;;;30.34;42.47
63665;BME280;49820;33.966;73.390;2023-06-14T07:27:51;78484.81;;;30.88;42.50
63665;BME280;49820;33.966;73.390;2023-06-14T07:30:21;78468.56;;;30.78;45.24
63665;BME280;49820;33.966;73.390;2023-06-14T07:32:54;78464.22;;;31.74;43.56
63665;BME280;49820;33.966;73.390;2023-06-14T07:35:24;78475.41;;;31.22;48.62
63665;BME280;49820;33.966;73.390;2023-06-14T07:37:53;78453.56;;;30.46;44.34
63665;BME280;49820;33.966;73.390;2023-06-14T07:40:22;78454.97;;;30.97;46.68
63665;BME280;49820;33.966;73.390;2023-06-14T07:42:53;78475.53;;;30.24;41.18
63665;BME280;49820;33.966;73.390;2023-06-14T07:45:23;78472.66;;;30.63;41.29
63665;BME280;49820;33.966;73.390;2023-06-14T07:47:52;78468.81;;;31.19;50.33
63665;BME280;49820;33.966;73.390;2023-06-14T07:50:22;78458.31;;;30.91;41.62
63665;BME280;49820;33.966;73.390;2023-06-14T07:52:52;78453.97;;;30.27;40.97
63665;BME280;49820;33.966;73.390;2023-06-14T07:55:21;78467.28;;;30.77;50.51
63665;BME280;49820;33.966;73.390;2023-06-14T07:57:50;78451.31;;;31.58;50.09
63665;BME280;49820;33.966;73.390;2023-06-14T08:00:20;78458.00;;;31.45;48.20
63665;BME280;49820;33.966;73.390;2023-06-14T08:02:50;78449.38;;;31.78;48.92
63665;BME280;49820;33.966;73.390;2023-06-14T08:05:27;78459.25;;;31.18;49.71
63665;BME280;49820;33.966;73.390;2023-06-14T08:07:57;78461.97;;;31.40;46.69
63665;BME280;49820;33.966;73.390;2023-06-14T08:10:26;78454.72;;;32.15;42.26
63665;BME280;49820;33.966;73.390;2023-06-14T08:12:56;78458.25;;;31.50;45.38
63665;BME280;49820;33.966;73.390;2023-06-14T08:15:26;78466.13;;;31.54;41.86
63665;BME280;49820;33.966;73.390;2023-06-14T08:17:55;78463.88;;;30.39;43.33
63665;BME280;49820;33.966;73.390;2023-06-14T08:20:25;78461.03;;;31.28;43.54
63665;BME280;49820;33.966;73.390;2023-06-14T08:22:54;78456.53;;;30.29;40.83
63665;BME280;49820;33.966;73.390;2023-06-14T08:25:26;78449.91;;;30.56;45.72
63665;BME280;49820;33.966;73.390;2023-06-14T08:27:55;78450.34;;;30.44;44.39
63665;BME280;49820;33.966;73.390;2023-06-14T08:30:25;78451.88;;;30.49;42.43
63665;BME280;49820;33.966;73.390;2023-06-14T08:32:54;78446.50;;;30.56;40.65
63665;BME280;49820;33.966;73.390;2023-06-14T08:35:43;78442.22;;;30.72;50.11
63665;BME280;49820;33.966;73.390;2023-06-14T08:38:12;78420.56;;;31.12;40.22
63665;BME280;49820;33.966;73.390;2023-06-14T08:40:42;78446.94;;;29.91;40.98
63665;BME280;49820;33.966;73.390;2023-06-14T08:43:11;78436.44;;;29.39;40.28
63665;BME280;49820;33.966;73.390;2023-06-14T08:45:40;78417.63;;;29.27;48.08
63665;BME280;49820;33.966;73.390;2023-06-14T08:48:10;78441.22;;;29.93;45.05
63665;BME280;49820;33.966;73.390;2023-06-14T08:50:41;78423.50;;;29.53;49.54
63665;BME280;49820;33.966;73.390;2023-06-14T08:53:13;78431.13;;;30.50;49.16
63665;BME280;49820;33.966;73.390;2023-06-14T08:55:48;78420.66;;;30.81;47.02
63665;BME280;49820;33.966;73.390;2023-06-14T08:58:18;78422.41;;;31.06;49.92
63665;BME280;49820;33.966;73.390;2023-06-14T09:00:48;78410.72;;;30.84;41.48
63665;BME280;49820;33.966;73.390;2023-06-14T09:03:19;78420.53;;;30.90;45.86
63665;BME280;49820;33.966;73.390;2023-06-14T09:05:49;78407.97;;;30.47;48.40
63665;BME280;49820;33.966;73.390;2023-06-14T09:08:18;78412.13;;;31.20;47.36
63665;BME280;49820;33.966;73.390;2023-06-14T09:10:51;78422.22;;;30.50;39.85
63665;BME280;49820;33.966;73.390;2023-06-14T09:13:20;78418.13;;;30.27;39.93
63665;BME280;49820;33.966;73.390;2023-06-14T09:15:50;78389.59;;;30.15;48.29
63665;BME280;49820;33.966;73.390;2023-06-14T09:18:20;78391.28;;;30.34;43.24
63665;BME280;49820;33.966;73.390;2023-06-14T09:20:50;78386.88;;;30.37;43.14
63665;BME280;49820;33.966;73.390;2023-06-14T09:23:22;78414.41;;;30.15;38.86
63665;BME280;49820;33.966;73.390;2023-06-14T09:25:51;78395.41;;;30.42;48.50
63665;BME280;49820;33.966;73.390;2023-06-14T09:28:27;78408.97;;;30.22;40.11
63665;BME280;49820;33.966;73.390;2023-06-14T09:31:00;78398.16;;;29.89;41.39
63665;BME280;49820;33.966;73.390;2023-06-14T09:33:31;78385.44;;;29.55;40.60
63665;BME280;49820;33.966;73.390;2023-06-14T09:36:00;78387.94;;;28.97;53.56
63665;BME280;49820;33.966;73.390;2023-06-14T09:38:30;78373.66;;;29.79;41.10
63665;BME280;49820;33.966;73.390;2023-06-14T09:41:01;78370.63;;;30.05;45.61
63665;BME280;49820;33.966;73.390;2023-06-14T09:43:34;78375.06;;;30.23;48.63
63665;BME280;49820;33.966;73.390;2023-06-14T09:46:04;78388.44;;;29.60;41.10
63665;BME280;49820;33.966;73.390;2023-06-14T09:48:34;78378.19;;;29.52;39.90
63665;BME280;49820;33.966;73.390;2023-06-14T09:51:05;78358.44;;;29.65;41.40
63665;BME280;49820;33.966;73.390;2023-06-14T09:53:37;78395.34;;;29.83;45.96
63665;BME280;49820;33.966;73.390;2023-06-14T09:56:09;78388.47;;;30.49;44.32
63665;BME280;49820;33.966;73.390;2023-06-14T09:58:40;78382.50;;;30.25;41.88
63665;BME280;49820;33.966;73.390;2023-06-14T10:01:17;78379.53;;;30.05;48.38
63665;BME280;49820;33.966;73.390;2023-06-14T10:03:48;78384.47;;;30.48;40.03
63665;BME280;49820;33.966;73.390;2023-06-14T10:06:24;78381.09;;;29.95;45.50
63665;BME280;49820;33.966;73.390;2023-06-14T10:08:58;78363.22;;;29.73;50.37
63665;BME280;49820;33.966;73.390;2023-06-14T10:11:28;78388.63;;;29.88;46.29
63665;BME280;49820;33.966;73.390;2023-06-14T10:13:58;78369.53;;;29.71;41.97
63665;BME280;49820;33.966;73.390;2023-06-14T10:22:25;78374.69;;;29.30;40.63
63665;BME280;49820;33.966;73.390;2023-06-14T10:24:56;78374.91;;;29.43;42.64
63665;BME280;49820;33.966;73.390;2023-06-14T10:27:26;78367.91;;;29.74;42.37
63665;BME280;49820;33.966;73.390;2023-06-14T10:32:32;78372.22;;;29.49;41.14
63665;BME280;49820;33.966;73.390;2023-06-14T10:35:05;78382.81;;;30.14;44.83
63665;BME280;49820;33.966;73.390;2023-06-14T10:37:38;78390.22;;;29.64;43.96
63665;BME280;49820;33.966;73.390;2023-06-14T10:40:07;78381.22;;;29.56;50.94
63665;BME280;49820;33.966;73.390;2023-06-14T10:42:51;78358.00;;;28.15;46.10
63665;BME280;49820;33.966;73.390;2023-06-14T10:45:20;78379.72;;;28.10;51.26
63665;BME280;49820;33.966;73.390;2023-06-14T10:47:49;78380.50;;;27.85;50.95
63665;BME280;49820;33.966;73.390;2023-06-14T10:50:27;78377.03;;;27.69;50.34
63665;BME280;49820;33.966;73.390;2023-06-14T10:53:22;78375.63;;;28.18;49.40
63665;BME280;49820;33.966;73.390;2023-06-14T10:55:52;78346.81;;;28.01;47.35
63665;BME280;49820;33.966;73.390;2023-06-14T10:58:21;78354.25;;;28.27;45.52
63665;BME280;49820;33.966;73.390;2023-06-14T11:00:50;78382.59;;;27.52;46.13
63665;BME280;49820;33.966;73.390;2023-06-14T11:03:50;78393.50;;;28.01;50.90
63665;BME280;49820;33.966;73.390;2023-06-14T11:06:22;78364.31;;;27.24;46.25
63665;BME280;49820;33.966;73.390;2023-06-14T11:11:35;78361.06;;;27.71;45.97
63665;BME280;49820;33.966;73.390;2023-06-14T11:14:05;78351.84;;;26.26;47.60
63665;BME280;49820;33.966;73.390;2023-06-14T11:16:35;78391.28;;;26.29;53.80
63665;BME280;49820;33.966;73.390;2023-06-14T11:19:07;78373.81;;;27.25;49.16
63665;BME280;49820;33.966;73.390;2023-06-14T11:21:40;78346.63;;;27.15;45.30
63665;BME280;49820;33.966;73.390;2023-06-14T11:24:12;78373.81;;;27.25;46.48
63665;BME280;49820;33.966;73.390;2023-06-14T11:26:41;78376.78;;;27.56;47.56
63665;BME280;49820;33.966;73.390;2023-06-14T11:29:10;78371.28;;;27.23;45.79
63665;BME280;49820;33.966;73.390;2023-06-14T11:31:43;78346.47;;;26.50;46.65
63665;BME280;49820;33.966;73.390;2023-06-14T11:34:13;78388.44;;;27.07;48.69
63665;BME280;49820;33.966;73.390;2023-06-14T11:36:43;78355.63;;;26.64;54.47
63665;BME280;49820;33.966;73.390;2023-06-14T11:39:14;78356.16;;;27.07;48.56
63665;BME280;49820;33.966;73.390;2023-06-14T11:41:45;78385.78;;;27.22;51.91
63665;BME280;49820;33.966;73.390;2023-06-14T11:44:14;78383.09;;;27.54;50.88
63665;BME280;49820;33.966;73.390;2023-06-14T11:46:43;78362.59;;;27.12;47.66
63665;BME280;49820;33.966;73.390;2023-06-14T11:49:13;78390.56;;;27.80;49.42
63665;BME280;49820;33.966;73.390;2023-06-14T11:51:42;78380.06;;;27.41;47.14
63665;BME280;49820;33.966;73.390;2023-06-14T11:54:12;78391.78;;;27.16;48.09
63665;BME280;49820;33.966;73.390;2023-06-14T11:56:41;78368.78;;;26.87;45.52
63665;BME280;49820;33.966;73.390;2023-06-14T11:59:13;78390.09;;;26.78;53.36
63665;BME280;49820;33.966;73.390;2023-06-14T12:01:43;78385.13;;;26.54;49.46
63665;BME280;49820;33.966;73.390;2023-06-14T12:04:12;78375.81;;;26.43;49.18
63665;BME280;49820;33.966;73.390;2023-06-14T12:06:41;78342.97;;;25.74;48.55
63665;BME280;49820;33.966;73.390;2023-06-14T12:09:10;78371.94;;;26.22;48.22
63665;BME280;49820;33.966;73.390;2023-06-14T12:11:42;78364.53;;;26.21;48.89
63665;BME280;49820;33.966;73.390;2023-06-14T12:14:11;78363.88;;;26.12;47.77
63665;BME280;49820;33.966;73.390;2023-06-14T12:16:40;78354.06;;;25.63;47.57
63665;BME280;49820;33.966;73.390;2023-06-14T12:19:14;78345.34;;;24.90;49.10
63665;BME280;49820;33.966;73.390;2023-06-14T12:21:46;78377.00;;;25.32;50.62
63665;BME280;49820;33.966;73.390;2023-06-14T12:24:19;78374.78;;;25.43;49.67
63665;BME280;49820;33.966;73.390;2023-06-14T12:26:48;78374.53;;;25.11;51.10
63665;BME280;49820;33.966;73.390;2023-06-14T12:29:19;78380.00;;;24.74;52.68
63665;BME280;49820;33.966;73.390;2023-06-14T12:31:48;78364.88;;;24.66;51.05
63665;BME280;49820;33.966;73.390;2023-06-14T12:34:17;78352.16;;;23.99;56.29
63665;BME280;49820;33.966;73.390;2023-06-14T12:36:46;78353.44;;;24.00;54.71
63665;BME280;49820;33.966;73.390;2023-06-14T12:39:15;78371.63;;;23.84;55.39
63665;BME280;49820;33.966;73.390;2023-06-14T12:41:44;78359.00;;;23.70;54.15
63665;BME280;49820;33.966;73.390;2023-06-14T12:44:13;78339.44;;;23.29;57.29
63665;BME280;49820;33.966;73.390;2023-06-14T12:46:42;78349.75;;;22.98;55.22
63665;BME280;49820;33.966;73.390;2023-06-14T12:49:12;78359.25;;;23.18;55.82
63665;BME280;49820;33.966;73.390;2023-06-14T12:51:41;78326.66;;;22.78;57.09
63665;BME280;49820;33.966;73.390;2023-06-14T12:54:10;78324.00;;;22.37;58.65
63665;BME280;49820;33.966;73.390;2023-06-14T12:56:40;78326.84;;;22.35;58.02
63665;BME280;49820;33.966;73.390;2023-06-14T12:59:11;78305.50;;;22.29;59.93
63665;BME280;49820;33.966;73.390;2023-06-14T13:01:40;78307.28;;;22.33;61.52
63665;BME280;49820;33.966;73.390;2023-06-14T13:04:09;78345.53;;;22.31;60.34
63665;BME280;49820;33.966;73.390;2023-06-14T13:06:38;78340.41;;;22.16;58.75
63665;BME280;49820;33.966;73.390;2023-06-14T13:09:09;78328.94;;;21.84;61.51
63665;BME280;49820;33.966;73.390;2023-06-14T13:11:38;78341.44;;;21.49;62.74
63665;BME280;49820;33.966;73.390;2023-06-14T13:14:07;78345.72;;;21.46;62.70
63665;BME280;49820;33.966;73.390;2023-06-14T13:16:51;78338.09;;;21.38;63.42
63665;BME280;49820;33.966;73.390;2023-06-14T13:19:20;78359.53;;;21.74;61.38
63665;BME280;49820;33.966;73.390;2023-06-14T13:21:50;78350.13;;;21.41;62.23
63665;BME280;49820;33.966;73.390;2023-06-14T13:24:23;78351.03;;;21.16;62.37
63665;BME280;49820;33.966;73.390;2023-06-14T13:26:52;78353.09;;;21.15;63.98
63665;BME280;49820;33.966;73.390;2023-06-14T13:29:22;78366.03;;;21.25;66.94
63665;BME280;49820;33.966;73.390;2023-06-14T13:31:52;78367.84;;;21.18;68.84
63665;BME280;49820;33.966;73.390;2023-06-14T13:34:21;78350.78;;;20.99;69.17
63665;BME280;49820;33.966;73.390;2023-06-14T13:36:50;78346.31;;;20.61;67.78
63665;BME280;49820;33.966;73.390;2023-06-14T13:39:19;78360.81;;;20.58;68.29
63665;BME280;49820;33.966;73.390;2023-06-14T13:41:48;78351.25;;;20.69;70.51
63665;BME280;49820;33.966;73.390;2023-06-14T13:44:16;78345.69;;;20.61;67.57
63665;BME280;49820;33.966;73.390;2023-06-14T13:46:49;78349.41;;;20.44;67.93
63665;BME280;49820;33.966;73.390;2023-06-14T13:49:18;78362.59;;;20.50;67.80
63665;BME280;49820;33.966;73.390;2023-06-14T13:51:47;78359.44;;;20.35;69.52
63665;BME280;49820;33.966;73.390;2023-06-14T13:54:20;78354.25;;;20.31;67.67
63665;BME280;49820;33.966;73.390;2023-06-14T13:56:49;78351.88;;;20.14;68.28
63665;BME280;49820;33.966;73.390;2023-06-14T13:59:18;78332.19;;;19.93;67.93
63665;BME280;49820;33.966;73.390;2023-06-14T14:01:47;78365.06;;;20.10;67.06
63665;BME280;49820;33.966;73.390;2023-06-14T14:04:17;78369.03;;;20.00;68.17
63665;BME280;49820;33.966;73.390;2023-06-14T14:06:46;78377.88;;;19.88;68.76
63665;BME280;49820;33.966;73.390;2023-06-14T14:09:16;78367.66;;;19.78;69.17
63665;BME280;49820;33.966;73.390;2023-06-14T14:11:45;78387.84;;;19.92;67.45
63665;BME280;49820;33.966;73.390;2023-06-14T14:14:14;78375.31;;;19.86;65.03
63665;BME280;49820;33.966;73.390;2023-06-14T14:16:43;78375.63;;;19.80;64.28
63665;BME280;49820;33.966;73.390;2023-06-14T14:19:12;78371.88;;;19.75;64.58
63665;BME280;49820;33.966;73.390;2023-06-14T14:21:41;78390.25;;;19.85;63.24
63665;BME280;49820;33.966;73.390;2023-06-14T14:24:10;78370.19;;;19.69;63.76
63665;BME280;49820;33.966;73.390;2023-06-14T14:26:39;78394.13;;;19.88;63.80
63665;BME280;49820;33.966;73.390;2023-06-14T14:29:09;78384.97;;;19.83;63.57
63665;BME280;49820;33.966;73.390;2023-06-14T14:31:39;78383.75;;;19.69;64.51
63665;BME280;49820;33.966;73.390;2023-06-14T14:34:08;78366.72;;;19.48;64.89
63665;BME280;49820;33.966;73.390;2023-06-14T14:36:37;78329.16;;;19.05;67.32
63665;BME280;49820;33.966;73.390;2023-06-14T14:39:10;78382.34;;;19.34;65.92
63665;BME280;49820;33.966;73.390;2023-06-14T14:41:39;78383.94;;;19.19;67.53
63665;BME280;49820;33.966;73.390;2023-06-14T14:44:09;78401.06;;;19.38;67.07
63665;BME280;49820;33.966;73.390;2023-06-14T14:46:38;78394.41;;;19.25;67.82
63665;BME280;49820;33.966;73.390;2023-06-14T14:49:07;78384.00;;;19.29;70.57
63665;BME280;49820;33.966;73.390;2023-06-14T14:51:36;78391.25;;;19.33;72.44
63665;BME280;49820;33.966;73.390;2023-06-14T14:54:06;78409.25;;;19.26;77.32
63665;BME280;49820;33.966;73.390;2023-06-14T14:56:36;78413.63;;;19.21;80.41
63665;BME280;49820;33.966;73.390;2023-06-14T14:59:06;78387.47;;;19.04;77.77
63665;BME280;49820;33.966;73.390;2023-06-14T15:01:35;78411.56;;;19.21;84.82
63665;BME280;49820;33.966;73.390;2023-06-14T15:04:04;78372.41;;;18.59;100.00
